createdAt,value
2023-01-09T00:02:16.005Z,99001.56
2023-01-09T00:04:45.280Z,99004.81
2023-01-09T00:07:13.141Z,99002.09
2023-01-09T00:09:41.291Z,98990.94
2023-01-09T00:12:09.191Z,98994.75
2023-01-09T00:14:37.361Z,99000.44
2023-01-09T00:17:05.320Z,99003.72
2023-01-09T00:19:33.184Z,99000.19
2023-01-09T00:22:02.709Z,98998.28
2023-01-09T00:24:30.583Z,98998.28
2023-01-09T00:26:58.481Z,99002.91
2023-01-09T00:29:26.378Z,99011.06
2023-01-09T00:31:54.591Z,99005.06
2023-01-09T00:34:22.503Z,99008.59
2023-01-09T00:36:55.052Z,99005.88
2023-01-09T00:39:24.373Z,98996.91
2023-01-09T00:41:53.697Z,98996.91
2023-01-09T00:44:23.152Z,99003.16
2023-01-09T00:46:51.944Z,99014.03
2023-01-09T00:49:19.821Z,99008.59
2023-01-09T00:51:48.009Z,99012.38
2023-01-09T00:54:17.159Z,99013.19
2023-01-09T00:56:46.473Z,99019.47
2023-01-09T00:59:14.341Z,99023.25
2023-01-09T01:01:42.343Z,99025.13
2023-01-09T01:04:24.173Z,99031.41
2023-01-09T01:07:09.317Z,99030.56
2023-01-09T01:09:37.208Z,99031.41
2023-01-09T01:12:07.350Z,99029.75
2023-01-09T01:14:35.535Z,99037.91
2023-01-09T01:17:03.524Z,99029.75
2023-01-09T01:19:31.387Z,99037.66
2023-01-09T01:21:59.628Z,99038.72
2023-01-09T01:24:27.520Z,99044.16
2023-01-09T01:26:55.387Z,99044.16
2023-01-09T01:29:24.645Z,99051.47
2023-01-09T01:31:52.916Z,99046.03
2023-01-09T01:34:20.814Z,99049.59
2023-01-09T01:36:48.695Z,99051.47
2023-01-09T01:39:17.374Z,99039.00
2023-01-09T01:41:45.499Z,99041.72
2023-01-09T01:44:46.639Z,99045.22
2023-01-09T01:47:15.972Z,99056.09
2023-01-09T01:49:44.136Z,99051.75
2023-01-09T01:52:12.045Z,99049.03
2023-01-09T01:54:39.921Z,99054.47
2023-01-09T01:57:07.793Z,99063.44
2023-01-09T01:59:37.616Z,99066.16
2023-01-09T02:02:06.053Z,99061.53
2023-01-09T02:04:36.339Z,99070.78
2023-01-09T02:07:05.408Z,99065.34
2023-01-09T02:09:33.269Z,99070.78
2023-01-09T02:12:01.470Z,99078.91
2023-01-09T02:14:30.668Z,98925.50
2023-01-09T02:17:02.089Z,99068.25
2023-01-09T02:19:49.032Z,99082.72
2023-01-09T02:22:20.489Z,99088.97
2023-01-09T02:25:02.318Z,99069.13
2023-01-09T02:27:50.202Z,99067.47
2023-01-09T02:30:38.235Z,99065.59
2023-01-09T02:33:13.865Z,99069.94
2023-01-09T02:35:53.771Z,99068.31
2023-01-09T02:38:25.715Z,99067.47
2023-01-09T02:40:56.799Z,99073.75
2023-01-09T02:43:24.704Z,99066.66
2023-01-09T02:45:54.091Z,99078.59
2023-01-09T02:48:22.118Z,99084.84
2023-01-09T02:50:54.238Z,99090.28
2023-01-09T02:53:45.189Z,99087.31
2023-01-09T02:56:21.359Z,99093.81
2023-01-09T02:58:58.968Z,99094.66
2023-01-09T03:01:29.696Z,99094.66
2023-01-09T03:04:01.022Z,99097.59
2023-01-09T03:06:32.215Z,99080.44
2023-01-09T03:09:02.438Z,99096.53
2023-01-09T03:11:32.532Z,99095.97
2023-01-09T03:14:02.659Z,99100.31
2023-01-09T03:16:33.981Z,99111.19
2023-01-09T03:19:01.921Z,99105.47
2023-01-09T03:21:30.105Z,99110.38
2023-01-09T03:23:59.062Z,99118.50
2023-01-09T03:26:29.089Z,99110.66
2023-01-09T03:28:57.038Z,99122.06
2023-01-09T03:31:25.181Z,99122.34
2023-01-09T03:33:54.534Z,99123.13
2023-01-09T03:36:22.674Z,99123.13
2023-01-09T03:38:51.439Z,99135.63
2023-01-09T03:41:19.740Z,99136.44
2023-01-09T03:43:48.484Z,99146.78
2023-01-09T03:46:16.522Z,99143.78
2023-01-09T03:48:44.380Z,99148.38
2023-01-09T03:51:13.949Z,99145.66
2023-01-09T03:53:42.323Z,99139.41
2023-01-09T03:56:10.174Z,99135.63
2023-01-09T03:58:38.143Z,99134.81
2023-01-09T04:01:09.397Z,99134.81
2023-01-09T04:03:37.435Z,99125.84
2023-01-09T04:06:05.687Z,99133.19
2023-01-09T04:08:34.962Z,99142.13
2023-01-09T04:11:03.191Z,99146.50
2023-01-09T04:13:31.092Z,99145.66
2023-01-09T04:15:59.109Z,99132.09
2023-01-09T04:18:27.051Z,99130.19
2023-01-09T04:20:55.557Z,99131.28
2023-01-09T04:23:23.537Z,99141.06
2023-01-09T04:25:52.799Z,99141.06
2023-01-09T04:28:20.690Z,99142.72
2023-01-09T04:30:48.824Z,99153.56
2023-01-09T04:33:16.707Z,99151.69
2023-01-09T04:35:44.682Z,99151.09
2023-01-09T04:38:12.599Z,99168.78
2023-01-09T04:40:40.799Z,99167.97
2023-01-09T04:43:10.111Z,99165.25
2023-01-09T04:45:38.049Z,99170.44
2023-01-09T04:48:06.594Z,99173.16
2023-01-09T04:50:34.811Z,99171.50
2023-01-09T04:53:02.670Z,99174.22
2023-01-09T04:55:30.545Z,99171.25
2023-01-09T04:57:58.498Z,99174.22
2023-01-09T05:00:28.047Z,99177.53
2023-01-09T05:02:56.980Z,99180.22
2023-01-09T05:05:24.910Z,99185.91
2023-01-09T05:07:52.764Z,99182.94
2023-01-09T05:10:21.047Z,99197.31
2023-01-09T05:12:48.972Z,99191.09
2023-01-09T05:15:17.036Z,99191.09
2023-01-09T05:17:46.432Z,99191.09
2023-01-09T05:20:14.711Z,99191.88
2023-01-09T05:22:42.602Z,99201.13
2023-01-09T05:25:10.929Z,99205.47
2023-01-09T05:27:38.944Z,99196.25
2023-01-09T05:30:09.670Z,99204.41
2023-01-09T05:32:37.559Z,99201.69
2023-01-09T05:35:07.877Z,99198.97
2023-01-09T05:37:35.741Z,99205.22
2023-01-09T05:40:04.059Z,99204.41
2023-01-09T05:42:31.970Z,99204.41
2023-01-09T05:44:59.848Z,99207.13
2023-01-09T05:47:27.731Z,99211.47
2023-01-09T05:49:56.337Z,99206.28
2023-01-09T05:52:25.715Z,99207.13
2023-01-09T05:54:53.575Z,99201.69
2023-01-09T05:57:21.531Z,99205.22
2023-01-09T05:59:49.687Z,99196.53
2023-01-09T06:02:17.685Z,99203.56
2023-01-09T06:04:45.704Z,99207.13
2023-01-09T06:07:18.585Z,99206.28
2023-01-09T06:09:49.279Z,99213.38
2023-01-09T06:12:17.157Z,99208.19
2023-01-09T06:14:45.057Z,99213.38
2023-01-09T06:17:12.986Z,99219.88
2023-01-09T06:19:40.864Z,99212.56
2023-01-09T06:22:08.749Z,99216.09
2023-01-09T06:24:36.620Z,99216.09
2023-01-09T06:27:06.663Z,99208.75
2023-01-09T06:29:34.660Z,99220.69
2023-01-09T06:32:03.055Z,99221.75
2023-01-09T06:34:30.957Z,99218.81
2023-01-09T06:36:58.823Z,99222.34
2023-01-09T06:39:26.769Z,99224.25
2023-01-09T06:41:54.897Z,99222.34
2023-01-09T06:44:24.115Z,99227.78
2023-01-09T06:46:52.050Z,99228.59
2023-01-09T06:49:23.478Z,99220.97
2023-01-09T06:51:51.669Z,99224.00
2023-01-09T06:54:19.681Z,99227.78
2023-01-09T06:56:47.617Z,99219.63
2023-01-09T06:59:15.524Z,99228.59
2023-01-09T07:01:45.267Z,99227.78
2023-01-09T07:04:13.208Z,99224.00
2023-01-09T07:06:41.157Z,99222.34
2023-01-09T07:09:13.165Z,99216.91
2023-01-09T07:11:41.463Z,99218.56
2023-01-09T07:14:09.352Z,99210.41
2023-01-09T07:16:37.258Z,99213.13
2023-01-09T07:19:06.574Z,99213.94
2023-01-09T07:21:34.753Z,99224.00
2023-01-09T07:24:02.667Z,99218.56
2023-01-09T07:26:30.588Z,99228.59
2023-01-09T07:28:58.483Z,99227.53
2023-01-09T07:31:26.704Z,99238.66
2023-01-09T07:33:54.641Z,99224.00
2023-01-09T07:36:23.927Z,99227.53
2023-01-09T07:38:51.875Z,99232.97
2023-01-09T07:41:20.071Z,99235.69
2023-01-09T07:43:47.955Z,99232.97
2023-01-09T07:46:15.856Z,99245.47
2023-01-09T07:48:43.757Z,99245.47
2023-01-09T07:51:12.687Z,99244.66
2023-01-09T07:53:41.980Z,99244.06
2023-01-09T07:56:09.877Z,99245.72
2023-01-09T07:58:38.448Z,99239.66
2023-01-09T08:01:06.954Z,99258.22
2023-01-09T08:03:35.150Z,99256.34
2023-01-09T08:06:03.038Z,99260.13
2023-01-09T08:08:30.923Z,99255.47
2023-01-09T08:11:00.514Z,99266.38
2023-01-09T08:13:28.406Z,99269.91
2023-01-09T08:15:56.383Z,99271.81
2023-01-09T08:18:24.318Z,99270.72
2023-01-09T08:20:52.546Z,99270.72
2023-01-09T08:23:20.437Z,99271.81
2023-01-09T08:25:48.402Z,99273.72
2023-01-09T08:28:18.132Z,99275.34
2023-01-09T08:30:46.332Z,99266.38
2023-01-09T08:33:14.252Z,99272.63
2023-01-09T08:35:42.151Z,99278.06
2023-01-09T08:38:10.042Z,99261.19
2023-01-09T08:40:38.280Z,99282.69
2023-01-09T08:43:23.516Z,99271.81
2023-01-09T08:46:15.742Z,99270.72
2023-01-09T08:48:44.290Z,99280.78
2023-01-09T08:51:12.376Z,99287.00
2023-01-09T08:53:40.288Z,99286.22
2023-01-09T08:56:08.595Z,99282.69
2023-01-09T08:58:36.490Z,99288.66
2023-01-09T09:01:08.115Z,99303.31
2023-01-09T09:03:36.001Z,99296.81
2023-01-09T09:06:04.210Z,99306.84
2023-01-09T09:08:32.298Z,99310.38
2023-01-09T09:11:01.264Z,99305.78
2023-01-09T09:13:29.172Z,99307.69
2023-01-09T09:15:57.134Z,99319.59
2023-01-09T09:18:26.495Z,99320.44
2023-01-09T09:20:54.651Z,99322.31
2023-01-09T09:23:23.690Z,99321.00
2023-01-09T09:25:51.588Z,99322.06
2023-01-09T09:28:19.517Z,99330.22
2023-01-09T09:30:47.680Z,99322.91
2023-01-09T09:33:15.514Z,99338.13
2023-01-09T09:35:44.783Z,99332.69
2023-01-09T09:38:13.382Z,99337.31
2023-01-09T09:41:01.741Z,99333.78
2023-01-09T09:43:58.052Z,99340.03
2023-01-09T09:46:29.960Z,99341.09
2023-01-09T09:48:58.987Z,99348.13
2023-01-09T09:51:37.328Z,99344.56
2023-01-09T09:54:07.539Z,99363.66
2023-01-09T09:56:37.609Z,99359.88
2023-01-09T09:59:06.385Z,99356.25
2023-01-09T10:01:50.512Z,99369.91
2023-01-09T10:04:19.535Z,99369.31
2023-01-09T10:06:49.813Z,99373.44
2023-01-09T10:09:21.849Z,99370.72
2023-01-09T10:11:52.378Z,99380.53
2023-01-09T10:14:24.274Z,99380.53
2023-01-09T10:17:15.382Z,99378.88
2023-01-09T10:19:54.658Z,99381.59
2023-01-09T10:22:26.889Z,99378.88
2023-01-09T10:25:03.032Z,99384.31
2023-01-09T10:27:37.094Z,99380.78
2023-01-09T10:30:14.550Z,99384.31
2023-01-09T10:32:51.260Z,99388.09
2023-01-09T10:35:26.216Z,99380.19
2023-01-09T10:37:56.707Z,99384.31
2023-01-09T10:40:26.307Z,99384.31
2023-01-09T10:42:55.315Z,99397.31
2023-01-09T10:45:25.246Z,99389.75
2023-01-09T10:47:53.306Z,99387.03
2023-01-09T10:50:22.494Z,99387.03
2023-01-09T10:52:51.005Z,99387.03
2023-01-09T10:55:23.565Z,99378.81
2023-01-09T10:57:53.069Z,99390.56
2023-01-09T11:00:23.559Z,99391.41
2023-01-09T11:02:51.936Z,99398.72
2023-01-09T11:05:21.612Z,99322.66
2023-01-09T11:07:51.287Z,99381.59
2023-01-09T11:10:22.758Z,99392.47
2023-01-09T11:12:50.719Z,99389.75
2023-01-09T11:15:30.067Z,99389.75
2023-01-09T11:18:16.843Z,99393.28
2023-01-09T11:20:44.789Z,99400.63
2023-01-09T11:23:29.597Z,99403.34
2023-01-09T11:26:00.172Z,99390.56
2023-01-09T11:28:28.073Z,99403.56
2023-01-09T11:30:57.756Z,99407.94
2023-01-09T11:33:27.135Z,99411.47
2023-01-09T11:35:58.223Z,99409.59
2023-01-09T11:38:26.127Z,99406.06
2023-01-09T11:40:54.691Z,99420.47
2023-01-09T11:43:30.728Z,99415.03
2023-01-09T11:46:01.410Z,99420.47
2023-01-09T11:48:34.548Z,99418.56
2023-01-09T11:51:03.517Z,99425.88
2023-01-09T11:53:31.368Z,99429.44
2023-01-09T11:56:01.463Z,99428.59
2023-01-09T11:58:33.305Z,99434.88
2023-01-09T12:01:07.329Z,99428.59
2023-01-09T12:04:03.805Z,99428.59
2023-01-09T12:06:34.412Z,99427.78
2023-01-09T12:09:02.987Z,99435.94
2023-01-09T12:11:33.867Z,99454.72
2023-01-09T12:14:39.796Z,99444.91
2023-01-09T12:17:28.710Z,99444.91
2023-01-09T12:20:16.584Z,99462.03
2023-01-09T12:22:46.198Z,99453.06
2023-01-09T12:25:22.315Z,99458.50
2023-01-09T12:27:58.352Z,99469.59
2023-01-09T12:30:36.379Z,99473.72
2023-01-09T12:33:13.816Z,99464.75
2023-01-09T12:35:42.576Z,99465.56
2023-01-09T12:38:25.905Z,99469.34
2023-01-09T12:41:11.585Z,99471.00
2023-01-09T12:43:42.145Z,99462.84
2023-01-09T12:46:14.890Z,99471.00
2023-01-09T12:48:53.504Z,99462.03
2023-01-09T12:51:25.874Z,99460.13
2023-01-09T12:53:57.046Z,99468.28
2023-01-09T12:56:25.823Z,99464.69
2023-01-09T12:58:55.398Z,99437.84
2023-01-09T13:01:26.063Z,99471.81
2023-01-09T13:03:58.995Z,99473.72
2023-01-09T13:06:26.937Z,99481.88
2023-01-09T13:08:59.447Z,99487.03
2023-01-09T13:11:29.797Z,99485.38
2023-01-09T13:13:59.704Z,99484.59
2023-01-09T13:16:29.309Z,99490.03
2023-01-09T13:19:00.279Z,99493.53
2023-01-09T13:21:28.489Z,99501.69
2023-01-09T13:23:57.404Z,99510.94
2023-01-09T13:26:26.465Z,99444.66
2023-01-09T13:28:57.019Z,99510.94
2023-01-09T13:31:57.683Z,99511.75
2023-01-09T13:34:28.077Z,99524.53
2023-01-09T13:36:56.680Z,99525.34
2023-01-09T13:39:25.456Z,99531.56
2023-01-09T13:42:16.302Z,99532.66
2023-01-09T13:44:44.215Z,99541.88
2023-01-09T13:47:17.725Z,99462.91
2023-01-09T13:50:06.930Z,99541.88
2023-01-09T13:52:37.238Z,99553.56
2023-01-09T13:55:26.942Z,99559.84
2023-01-09T13:58:26.025Z,99562.56
2023-01-09T14:01:01.985Z,99560.06
2023-01-09T14:03:33.098Z,99571.78
2023-01-09T14:06:11.881Z,99571.78
2023-01-09T14:08:40.549Z,99586.41
2023-01-09T14:11:08.708Z,99585.03
2023-01-09T14:13:40.299Z,99597.03
2023-01-09T14:16:09.089Z,99597.88
2023-01-09T14:18:37.986Z,99608.75
2023-01-09T14:21:08.711Z,99620.44
2023-01-09T14:23:51.495Z,99605.34
2023-01-09T14:26:22.306Z,99622.31
2023-01-09T14:28:50.233Z,99627.75
2023-01-09T14:31:30.555Z,99634.00
2023-01-09T14:34:31.381Z,99644.88
2023-01-09T14:37:01.263Z,99641.34
2023-01-09T14:39:29.881Z,99644.88
2023-01-09T14:42:02.399Z,99649.50
2023-01-09T14:44:30.937Z,99658.47
2023-01-09T14:47:01.295Z,99658.47
2023-01-09T14:49:33.173Z,99666.63
2023-01-09T14:52:04.572Z,99669.34
2023-01-09T14:54:34.719Z,99679.09
2023-01-09T14:57:02.711Z,99678.28
2023-01-09T14:59:30.637Z,99695.41
2023-01-09T15:01:59.483Z,99695.41
2023-01-09T15:04:31.705Z,99701.09
2023-01-09T15:06:59.869Z,99706.88
2023-01-09T15:09:29.785Z,99710.66
2023-01-09T15:11:59.042Z,99724.22
2023-01-09T15:14:31.531Z,99724.47
2023-01-09T15:16:59.447Z,99745.13
2023-01-09T15:19:27.632Z,99743.00
2023-01-09T15:21:59.731Z,99752.22
2023-01-09T15:24:29.889Z,99745.97
2023-01-09T15:26:58.570Z,99752.47
2023-01-09T15:29:26.762Z,99760.63
2023-01-09T15:31:55.867Z,99766.31
2023-01-09T15:34:24.672Z,99766.06
2023-01-09T15:36:52.777Z,99780.47
2023-01-09T15:39:22.580Z,99781.53
2023-01-09T15:42:09.696Z,99786.97
2023-01-09T15:44:38.757Z,99784.25
2023-01-09T15:47:07.522Z,99798.91
2023-01-09T15:49:35.967Z,99797.03
2023-01-09T15:52:04.529Z,99800.53
2023-01-09T15:54:33.024Z,99805.19
2023-01-09T15:57:33.246Z,99808.69
2023-01-09T16:00:45.383Z,99812.75
2023-01-09T16:03:21.369Z,99811.69
2023-01-09T16:05:52.059Z,99827.97
2023-01-09T16:08:29.705Z,99831.53
2023-01-09T16:10:59.719Z,99831.75
2023-01-09T16:13:30.155Z,99841.56
2023-01-09T16:15:58.191Z,99850.53
2023-01-09T16:18:31.101Z,99857.88
2023-01-09T16:21:03.847Z,99857.59
2023-01-09T16:23:32.593Z,99859.53
2023-01-09T16:26:16.305Z,99864.97
2023-01-09T16:28:48.593Z,99869.56
2023-01-09T16:31:20.626Z,99873.09
2023-01-09T16:33:58.566Z,99864.25
2023-01-09T16:36:35.974Z,99880.44
2023-01-09T16:39:05.185Z,99882.06
2023-01-09T16:41:50.322Z,99890.22
2023-01-09T16:44:19.654Z,99894.56
2023-01-09T16:46:47.951Z,99889.97
2023-01-09T16:49:18.328Z,99892.47
2023-01-09T16:51:55.406Z,99900.63
2023-01-09T16:54:23.711Z,99905.00
2023-01-09T16:57:07.851Z,99916.91
2023-01-09T16:59:37.553Z,99916.91
2023-01-09T17:02:18.740Z,99913.38
2023-01-09T17:04:58.095Z,99915.03
2023-01-09T17:07:28.050Z,99923.19
2023-01-09T17:09:57.328Z,99918.81
2023-01-09T17:12:26.191Z,99923.19
2023-01-09T17:15:00.848Z,99937.59
2023-01-09T17:17:29.189Z,99930.28
2023-01-09T17:20:01.227Z,99926.97
2023-01-09T17:22:47.291Z,99933.22
2023-01-09T17:25:41.912Z,99934.88
2023-01-09T17:28:32.409Z,99937.00
2023-01-09T17:31:06.481Z,99932.63
2023-01-09T17:33:35.063Z,99930.41
2023-01-09T17:36:03.048Z,99937.72
2023-01-09T17:38:31.991Z,99947.88
2023-01-09T17:41:09.612Z,99959.56
2023-01-09T17:43:40.823Z,99956.00
2023-01-09T17:46:16.486Z,99965.00
2023-01-09T17:48:49.659Z,99981.31
2023-01-09T17:51:18.443Z,99977.75
2023-01-09T17:53:47.674Z,99986.97
2023-01-09T17:56:56.311Z,99991.34
2023-01-09T18:00:13.103Z,100005.97
2023-01-09T18:05:24.696Z,100004.31
2023-01-09T18:07:52.635Z,100010.59
2023-01-09T18:10:48.613Z,100018.75
2023-01-09T18:13:17.584Z,100018.75
2023-01-09T18:15:48.308Z,100025.00
2023-01-09T18:18:22.420Z,100032.31
2023-01-09T18:20:51.152Z,100038.59
2023-01-09T18:23:19.474Z,100032.31
2023-01-09T18:25:49.572Z,100047.34
2023-01-09T18:28:46.291Z,100057.59
2023-01-09T18:31:19.868Z,100060.31
2023-01-09T18:33:57.741Z,100069.31
2023-01-09T18:36:29.299Z,100070.38
2023-01-09T18:38:57.582Z,100071.69
2023-01-09T18:41:25.594Z,100083.13
2023-01-09T18:44:03.126Z,100083.94
2023-01-09T18:46:32.521Z,100089.38
2023-01-09T18:49:06.244Z,100099.44
2023-01-09T18:51:35.278Z,100110.28
2023-01-09T18:54:03.246Z,100111.13
2023-01-09T18:56:31.171Z,100117.66
2023-01-09T18:58:59.331Z,100122.25
2023-01-09T19:01:27.630Z,100131.25
2023-01-09T19:03:56.321Z,100126.59
2023-01-09T19:06:25.850Z,100126.59
2023-01-09T19:08:54.212Z,100132.03
2023-01-09T19:11:22.174Z,100136.66
2023-01-09T19:13:50.604Z,100137.47
2023-01-09T19:16:18.686Z,100141.28
2023-01-09T19:18:46.860Z,100146.72
2023-01-09T19:21:15.849Z,100148.81
2023-01-09T19:23:45.192Z,100157.56
2023-01-09T19:26:17.410Z,100149.53
2023-01-09T19:28:46.654Z,100165.72
2023-01-09T19:31:15.136Z,100173.88
2023-01-09T19:33:46.465Z,100171.38
2023-01-09T19:36:25.780Z,100183.09
2023-01-09T19:39:00.512Z,100190.41
2023-01-09T19:41:49.898Z,100192.28
2023-01-09T19:44:23.904Z,100198.56
2023-01-09T19:46:53.500Z,100199.63
2023-01-09T19:49:37.683Z,100191.47
2023-01-09T19:52:17.340Z,100195.84
2023-01-09T20:00:36.509Z,100211.31
2023-01-09T20:03:10.033Z,100224.91
2023-01-09T20:05:38.471Z,100224.06
2023-01-09T20:08:25.306Z,100230.13
2023-01-09T20:11:12.969Z,100237.44
2023-01-09T20:13:41.403Z,100242.03
2023-01-09T20:16:11.080Z,100251.03
2023-01-09T20:18:57.710Z,100259.75
2023-01-09T20:21:37.204Z,100259.75
2023-01-09T20:24:15.231Z,100264.38
2023-01-09T20:26:46.137Z,100281.75
2023-01-09T20:29:14.208Z,100283.63
2023-01-09T20:31:42.096Z,100287.19
2023-01-09T20:34:10.984Z,100289.88
2023-01-09T20:36:38.899Z,100296.16
2023-01-09T20:39:07.985Z,100296.59
2023-01-09T20:41:35.843Z,100304.31
2023-01-09T20:44:07.037Z,100305.13
2023-01-09T20:46:36.718Z,100311.63
2023-01-09T20:49:08.556Z,100310.78
2023-01-09T20:51:36.847Z,100318.94
2023-01-09T20:54:04.952Z,100331.47
2023-01-09T20:56:34.696Z,100336.09
2023-01-09T20:59:12.199Z,100349.66
2023-01-09T21:01:43.795Z,100353.22
2023-01-09T21:04:12.276Z,100360.53
2023-01-09T21:06:40.245Z,100377.69
2023-01-09T21:09:08.234Z,100371.41
2023-01-09T21:11:45.097Z,100383.34
2023-01-09T21:14:14.436Z,100385.00
2023-01-09T21:16:54.933Z,100393.16
2023-01-09T21:19:23.662Z,100390.44
2023-01-09T21:21:53.418Z,100405.91
2023-01-09T21:24:48.719Z,100408.63
2023-01-09T21:30:04.120Z,100424.94
2023-01-09T21:32:41.158Z,100434.13
2023-01-09T21:38:59.717Z,100440.63
2023-01-09T21:41:48.349Z,100437.31
2023-01-09T21:44:50.172Z,100444.38
2023-01-09T21:47:19.576Z,100455.25
2023-01-09T21:49:47.532Z,100445.47
2023-01-09T21:55:35.176Z,100458.22
2023-01-09T21:58:03.681Z,100462.59
2023-01-09T22:00:32.008Z,100474.28
2023-01-09T22:06:40.250Z,100478.91
2023-01-09T22:09:08.303Z,100487.88
2023-01-09T22:11:48.473Z,100489.53
2023-01-09T22:14:28.353Z,100493.06
2023-01-09T22:17:04.576Z,100498.50
2023-01-09T22:19:35.139Z,100504.16
2023-01-09T22:22:18.123Z,100498.72
2023-01-09T22:24:48.363Z,100503.38
2023-01-09T22:27:19.724Z,100509.59
2023-01-09T22:33:00.548Z,100518.59
2023-01-09T22:38:24.239Z,100538.69
2023-01-09T22:41:08.235Z,100539.75
2023-01-09T22:44:09.664Z,100546.84
2023-01-09T22:46:46.483Z,100559.59
2023-01-09T22:49:28.209Z,100558.34
2023-01-09T22:52:21.392Z,100567.75
2023-01-09T22:54:49.793Z,100577.53
2023-01-09T22:57:36.368Z,100582.16
2023-01-09T23:00:29.094Z,100482.41
2023-01-09T23:03:14.686Z,100593.25
2023-01-09T23:06:16.974Z,100592.19
2023-01-09T23:11:57.675Z,100603.28
2023-01-09T23:14:36.002Z,100605.16
2023-01-09T23:17:12.325Z,100621.47
2023-01-09T23:19:52.674Z,100621.47
2023-01-09T23:22:20.712Z,100628.78
2023-01-09T23:25:00.133Z,100637.78
2023-01-09T23:27:37.184Z,100636.94
2023-01-09T23:30:06.063Z,100647.81
2023-01-09T23:33:12.291Z,100655.13
2023-01-09T23:35:31.161Z,100653.25
2023-01-09T23:38:33.013Z,100657.00
2023-01-09T23:41:21.121Z,100662.69
2023-01-09T23:43:58.629Z,100674.38
2023-01-09T23:46:27.602Z,100681.72
2023-01-09T23:49:04.178Z,100686.06
2023-01-09T23:51:32.792Z,100689.63
2023-01-09T23:54:00.808Z,100694.22
2023-01-09T23:57:05.300Z,100685.25
